- বাংলা English

 * * Phone: +880 29135742, 9123838, 9141437 | FAX: +880 2 8118230, 58152019*   

METAR

VGHS 181700Z 33005KT 3200 HZ FEW100 19/16 Q1018 TEMPO S/VIS 2500M=